Time;durP1;ratioP1;P1;durP2;ratioP2;P2;SDS_P1;SDS_P2;PMS_P1;PMS_P2;Temp;Humidity;BMP_temperature;BMP_pressure;BME280_temperature;BME280_humidity;BME280_pressure;Samples;Min_cycle;Max_cycle;Signal;HPM_P1;HPM_P2
2022/07/04 00:02:04;;;;;;;14.73;7.50;;;;;;;10.52;95.08;101928.38;5113008;28;20413;-45
2022/07/04 00:04:29;;;;;;;14.85;7.47;;;;;;;10.52;94.84;101920.63;5113089;28;20031;-45
2022/07/04 00:06:55;;;;;;;12.23;7.32;;;;;;;10.54;94.73;101921.56;5111998;28;20016;-45
2022/07/04 00:09:20;;;;;;;16.90;7.70;;;;;;;10.53;94.59;101919.84;5112763;28;20081;-47
2022/07/04 00:11:45;;;;;;;14.93;7.15;;;;;;;10.53;94.73;101921.50;5112689;28;20020;-48
2022/07/04 00:14:11;;;;;;;13.57;6.82;;;;;;;10.47;94.00;101923.78;5111691;28;20019;-48
2022/07/04 00:16:36;;;;;;;11.40;7.20;;;;;;;10.42;93.96;101923.59;5112617;28;20050;-46
2022/07/04 00:19:01;;;;;;;10.63;6.03;;;;;;;10.31;93.38;101923.03;5112090;28;20024;-45
2022/07/04 00:21:27;;;;;;;14.25;6.90;;;;;;;10.30;93.76;101920.38;5112709;28;20023;-46
2022/07/04 00:23:52;;;;;;;14.43;7.22;;;;;;;10.27;94.11;101917.66;5112855;28;20054;-48
2022/07/04 00:26:17;;;;;;;13.13;7.40;;;;;;;10.23;93.62;101915.75;5111763;28;20486;-46
2022/07/04 00:28:43;;;;;;;15.02;7.10;;;;;;;10.18;94.18;101913.81;5115988;28;20454;-48
2022/07/04 00:31:08;;;;;;;13.95;7.93;;;;;;;10.20;94.67;101914.78;5116361;28;20068;-49
2022/07/04 00:33:34;;;;;;;14.65;8.23;;;;;;;10.22;95.68;101914.84;5115483;28;20059;-45
2022/07/04 00:35:59;;;;;;;14.13;7.63;;;;;;;10.26;96.07;101910.75;5116253;28;20534;-45
2022/07/04 00:38:24;;;;;;;14.27;7.22;;;;;;;10.23;95.53;101908.03;5116220;28;20023;-49
2022/07/04 00:40:50;;;;;;;15.27;7.05;;;;;;;10.20;95.22;101911.34;5115302;28;20031;-48
2022/07/04 00:43:26;;;;;;;15.05;6.72;;;;;;;10.16;94.88;101920.63;5115858;28;20153;-45
2022/07/04 00:45:52;;;;;;;13.00;7.03;;;;;;;10.14;95.23;101914.50;5116308;28;20027;-46
2022/07/04 00:48:18;;;;;;;15.05;7.60;;;;;;;10.14;96.12;101911.91;5115213;28;20023;-48
2022/07/04 00:50:46;;;;;;;16.00;7.63;;;;;;;10.12;95.88;101908.41;5115812;28;20493;-47
2022/07/04 00:53:13;;;;;;;16.42;7.32;;;;;;;10.10;95.24;101903.97;5115919;28;20047;-46
2022/07/04 00:55:39;;;;;;;17.23;7.60;;;;;;;10.07;95.02;101915.03;5114992;28;20031;-44
2022/07/04 00:58:04;;;;;;;15.10;7.35;;;;;;;10.10;95.07;101910.00;5115568;28;20126;-47
2022/07/04 01:00:30;;;;;;;13.05;7.32;;;;;;;10.08;95.08;101916.75;5115597;28;20081;-45
2022/07/04 01:02:55;;;;;;;12.60;7.68;;;;;;;10.08;95.83;101916.75;5115124;28;20463;-49
2022/07/04 01:05:20;;;;;;;15.75;7.32;;;;;;;10.07;95.78;101908.97;5115728;28;20030;-49
2022/07/04 01:07:46;;;;;;;14.88;7.00;;;;;;;10.02;95.44;101901.03;5115570;28;20036;-49
2022/07/04 01:10:11;;;;;;;13.88;7.57;;;;;;;10.04;95.79;101900.31;5114577;28;20034;-47
2022/07/04 01:12:38;;;;;;;15.63;7.75;;;;;;;9.99;95.41;101904.34;5115387;28;20091;-46
2022/07/04 01:15:05;;;;;;;17.17;8.60;;;;;;;9.97;95.94;101897.34;5115478;28;20076;-49
2022/07/04 01:17:30;;;;;;;15.70;8.07;;;;;;;9.93;96.12;101895.41;5114699;28;20058;-47
2022/07/04 01:19:55;;;;;;;16.27;8.75;;;;;;;9.95;97.02;101897.25;5115522;28;20475;-47
2022/07/04 01:22:22;;;;;;;16.55;8.20;;;;;;;9.96;97.22;101893.88;5114455;28;20020;-46
2022/07/04 01:24:47;;;;;;;15.90;7.57;;;;;;;9.96;97.52;101885.28;5115321;28;20032;-47
2022/07/04 01:27:13;;;;;;;21.98;9.57;;;;;;;9.97;98.20;101881.91;5115127;28;20415;-46
2022/07/04 01:29:38;;;;;;;12.38;7.90;;;;;;;9.89;96.68;101890.13;5114525;28;20923;-45
2022/07/04 01:32:08;;;;;;;16.88;8.65;;;;;;;9.82;96.57;101885.47;5114972;28;20080;-49
2022/07/04 01:34:34;;;;;;;16.83;9.40;;;;;;;9.77;96.64;101889.50;5114960;28;20481;-47
2022/07/04 01:37:00;;;;;;;14.93;9.27;;;;;;;9.77;97.73;101878.34;5114268;28;20024;-45
2022/07/04 01:39:28;;;;;;;16.77;8.43;;;;;;;9.70;96.84;101882.31;5114491;28;20379;-49
2022/07/04 01:41:55;;;;;;;16.38;8.80;;;;;;;9.66;96.88;101880.38;5114908;28;20462;-46
2022/07/04 01:44:20;;;;;;;16.55;8.60;;;;;;;9.61;96.66;101880.16;5114169;28;20036;-46
2022/07/04 01:46:45;;;;;;;16.40;8.80;;;;;;;9.62;97.13;101884.50;5114987;28;20032;-46
2022/07/04 01:49:11;;;;;;;16.70;8.57;;;;;;;9.58;97.13;101876.53;5114688;28;20030;-46
2022/07/04 01:51:46;;;;;;;13.25;7.90;;;;;;;9.49;96.92;101877.84;5113848;28;20068;-46
2022/07/04 01:54:12;;;;;;;16.20;8.65;;;;;;;9.44;97.26;101870.69;5114430;28;20030;-49
2022/07/04 01:56:38;;;;;;;13.80;8.50;;;;;;;9.41;97.29;101873.09;5114834;28;20094;-46
2022/07/04 01:59:03;;;;;;;19.77;9.70;;;;;;;9.34;97.67;101872.78;5113880;28;20559;-45
2022/07/04 02:01:29;;;;;;;20.27;9.75;;;;;;;9.38;98.47;101868.69;5114260;28;20035;-49
2022/07/04 02:03:54;;;;;;;21.50;10.32;;;;;;;9.37;98.56;101867.81;5114594;28;20026;-46
2022/07/04 02:06:20;;;;;;;18.13;9.77;;;;;;;9.37;98.77;101861.78;5113910;28;20080;-46
2022/07/04 02:09:28;;;;;;;23.00;10.57;;;;;;;9.33;98.50;101865.00;5114290;28;20368;-46
2022/07/04 02:13:00;;;;;;;18.48;9.57;;;;;;;9.30;98.24;101868.28;5102666;28;20088;-46
2022/07/04 02:14:19;;;;;;;19.45;10.10;;;;;;;9.29;98.95;101863.94;5114053;28;20120;-49
2022/07/04 02:16:44;;;;;;;15.68;9.70;;;;;;;9.28;98.88;101861.31;5114148;28;20123;-50
2022/07/04 02:19:10;;;;;;;15.38;10.60;;;;;;;9.23;98.67;101859.38;5113112;28;20024;-49
2022/07/04 02:21:35;;;;;;;19.17;10.30;;;;;;;9.27;98.99;101865.56;5114275;28;20094;-47
2022/07/04 02:24:00;;;;;;;19.95;10.85;;;;;;;9.26;98.91;101862.91;5114117;28;20429;-47
2022/07/04 02:26:26;;;;;;;21.85;10.98;;;;;;;9.27;98.90;101865.56;5113171;28;20027;-48
2022/07/04 02:28:52;;;;;;;13.50;9.38;;;;;;;9.28;98.75;101869.03;5114011;28;20460;-47
2022/07/04 02:31:17;;;;;;;19.40;9.98;;;;;;;9.20;98.31;101866.06;5113955;28;20024;-47
2022/07/04 02:33:42;;;;;;;18.63;10.43;;;;;;;9.18;98.57;101873.69;5113096;28;20033;-47
2022/07/04 02:36:08;;;;;;;17.92;10.63;;;;;;;9.23;98.74;101877.41;5113608;28;20126;-48
2022/07/04 02:38:33;;;;;;;18.02;10.18;;;;;;;9.22;98.64;101862.75;5113908;28;20028;-45
2022/07/04 02:40:58;;;;;;;21.92;12.15;;;;;;;9.21;99.00;101866.13;5113108;28;20028;-48
2022/07/04 02:43:23;;;;;;;21.05;10.77;;;;;;;9.20;98.81;101869.50;5113956;28;20024;-47
2022/07/04 02:45:49;;;;;;;17.40;10.23;;;;;;;9.19;99.02;101874.56;5113731;28;20023;-47
2022/07/04 02:48:14;;;;;;;19.30;10.40;;;;;;;9.18;98.75;101865.97;5112665;28;20027;-45
2022/07/04 02:50:39;;;;;;;20.30;10.48;;;;;;;9.16;98.89;101871.84;5112895;28;20039;-46
2022/07/04 02:53:05;;;;;;;21.73;11.50;;;;;;;9.18;98.92;101873.69;5113712;28;20020;-45
2022/07/04 02:55:30;;;;;;;19.52;10.50;;;;;;;9.17;98.74;101871.94;5112767;28;20032;-47
2022/07/04 02:57:55;;;;;;;22.55;10.48;;;;;;;9.18;98.71;101876.28;5113755;28;20031;-45
2022/07/04 03:00:21;;;;;;;19.55;10.13;;;;;;;9.15;98.44;101880.38;5113315;28;20047;-47
2022/07/04 03:02:46;;;;;;;14.88;9.10;;;;;;;9.15;98.29;101876.09;5112629;28;20023;-44
2022/07/04 03:05:11;;;;;;;15.82;10.23;;;;;;;9.14;98.30;101879.50;5113189;28;20055;-46
2022/07/04 03:07:36;;;;;;;15.80;10.20;;;;;;;9.12;98.09;101887.94;5113141;28;20028;-45
2022/07/04 03:10:02;;;;;;;16.48;9.45;;;;;;;9.12;98.35;101881.09;5112639;28;20119;-46
2022/07/04 03:12:27;;;;;;;17.38;9.43;;;;;;;9.13;98.26;101888.00;5113366;28;20027;-48
2022/07/04 03:14:53;;;;;;;15.52;10.25;;;;;;;9.13;98.35;101888.00;5112482;28;20027;-49
2022/07/04 03:17:19;;;;;;;21.15;10.15;;;;;;;9.06;98.22;101891.06;5113104;28;20031;-49
2022/07/04 03:19:45;;;;;;;19.73;11.52;;;;;;;9.02;98.50;101894.28;5113100;28;20027;-45
2022/07/04 03:22:10;;;;;;;21.27;11.60;;;;;;;9.02;99.14;101895.13;5112456;28;20323;-45
2022/07/04 03:24:35;;;;;;;21.55;12.18;;;;;;;9.05;99.54;101899.56;5113014;28;20477;-47
2022/07/04 03:27:01;;;;;;;22.08;11.55;;;;;;;9.03;99.15;101898.63;5113113;28;20032;-48
2022/07/04 03:29:26;;;;;;;19.98;10.90;;;;;;;9.05;99.23;101897.91;5112188;28;20035;-49
2022/07/04 03:31:51;;;;;;;19.45;11.18;;;;;;;9.04;99.35;101897.81;5113207;28;20076;-45
2022/07/04 03:34:17;;;;;;;23.33;12.70;;;;;;;9.03;99.55;101899.50;5112839;28;20042;-46
2022/07/04 03:36:42;;;;;;;23.20;11.38;;;;;;;9.06;99.52;101899.66;5112383;28;20039;-45
2022/07/04 03:39:07;;;;;;;18.42;11.27;;;;;;;9.03;99.42;101903.75;5112981;28;20375;-49
2022/07/04 03:41:33;;;;;;;20.67;11.73;;;;;;;9.04;99.41;101911.53;5112899;28;20132;-45
2022/07/04 03:43:58;;;;;;;19.83;11.80;;;;;;;9.03;99.35;101911.47;5112444;28;20023;-45
2022/07/04 03:46:23;;;;;;;23.73;11.60;;;;;;;9.01;99.45;101913.06;5112650;28;20027;-45
2022/07/04 03:48:49;;;;;;;21.58;11.85;;;;;;;9.04;100.00;101913.25;5112956;28;20019;-46
2022/07/04 03:51:15;;;;;;;24.52;12.27;;;;;;;9.07;100.00;101926.25;5112067;28;20092;-45
2022/07/04 03:53:41;;;;;;;19.30;11.50;;;;;;;9.06;100.00;101932.19;5112975;28;20475;-45
2022/07/04 03:56:08;;;;;;;28.73;15.35;;;;;;;9.29;100.00;101928.25;5112809;28;20027;-45
2022/07/04 03:58:33;;;;;;;31.55;15.80;;;;;;;9.49;100.00;101930.97;5111958;28;20102;-45
2022/07/04 04:00:58;;;;;;;30.60;15.13;;;;;;;9.60;100.00;101923.81;5112758;28;20123;-46
2022/07/04 04:06:07;;;;;;;29.08;16.25;;;;;;;9.91;100.00;101935.66;5116302;28;20131;-46
2022/07/04 04:08:32;;;;;;;35.88;16.23;;;;;;;10.03;100.00;101933.69;5116480;28;20051;-46
2022/07/04 04:10:58;;;;;;;29.75;15.50;;;;;;;10.14;100.00;101937.69;5116860;28;20035;-46
2022/07/04 04:13:23;;;;;;;34.28;16.10;;;;;;;10.27;100.00;101927.97;5115782;28;20034;-45
2022/07/04 04:15:48;;;;;;;34.55;15.90;;;;;;;10.40;100.00;101925.19;5116607;28;20031;-46
2022/07/04 04:18:14;;;;;;;34.28;15.40;;;;;;;10.50;100.00;101926.53;5115481;28;20035;-46
2022/07/04 04:20:39;;;;;;;34.05;15.10;;;;;;;10.52;100.00;101930.94;5116586;28;20368;-47
2022/07/04 04:23:05;;;;;;;31.67;15.75;;;;;;;10.61;100.00;101929.59;5116304;28;20485;-45
2022/07/04 04:25:30;;;;;;;30.77;15.25;;;;;;;10.67;100.00;101935.06;5115573;28;20042;-49
2022/07/04 04:27:56;;;;;;;27.52;15.60;;;;;;;10.73;100.00;101945.66;5116507;28;20028;-45
2022/07/04 04:30:21;;;;;;;32.42;15.95;;;;;;;10.81;100.00;101944.31;5116245;28;20072;-45
2022/07/04 04:32:46;;;;;;;30.88;14.60;;;;;;;10.90;100.00;101949.00;5115586;28;20023;-45
2022/07/04 04:35:12;;;;;;;31.10;15.35;;;;;;;10.96;100.00;101945.81;5116251;28;20042;-45
2022/07/04 04:37:37;;;;;;;32.17;15.30;;;;;;;11.06;100.00;101955.75;5116140;28;20030;-45
2022/07/04 04:40:03;;;;;;;32.95;15.32;;;;;;;11.12;100.00;101952.56;5115325;28;20106;-45
2022/07/04 04:42:28;;;;;;;30.58;15.25;;;;;;;11.20;100.00;101952.06;5116012;28;20390;-48
2022/07/04 04:44:53;;;;;;;35.08;15.48;;;;;;;11.29;100.00;101953.31;5116075;28;20059;-47
2022/07/04 04:47:19;;;;;;;30.77;15.27;;;;;;;11.33;99.58;101947.47;5115247;28;20031;-46
2022/07/04 04:49:44;;;;;;;29.40;15.25;;;;;;;11.36;99.68;101942.44;5116014;28;20023;-45
2022/07/04 04:52:11;;;;;;;33.53;15.70;;;;;;;11.39;99.36;101952.91;5115876;28;20077;-46
2022/07/04 04:54:36;;;;;;;35.20;15.05;;;;;;;11.46;98.88;101941.16;5115037;28;20019;-45
2022/07/04 04:57:02;;;;;;;34.13;15.27;;;;;;;11.49;98.89;101941.28;5115738;28;20026;-45
2022/07/04 04:59:29;;;;;;;33.20;13.77;;;;;;;11.51;98.77;101940.53;5115564;28;20035;-46
2022/07/04 05:01:55;;;;;;;25.40;15.00;;;;;;;11.57;98.97;101937.34;5114965;28;20057;-46
2022/07/04 05:04:20;;;;;;;26.90;14.38;;;;;;;11.62;98.64;101938.44;5115755;28;20119;-45
2022/07/04 05:06:45;;;;;;;33.15;14.40;;;;;;;11.68;98.51;101935.22;5115803;28;20053;-45
2022/07/04 05:09:11;;;;;;;31.17;14.50;;;;;;;11.74;98.49;101938.06;5114741;28;20081;-45
2022/07/04 05:11:36;;;;;;;32.38;13.85;;;;;;;11.78;98.41;101931.31;5115505;28;20363;-49
2022/07/04 05:14:01;;;;;;;29.50;14.05;;;;;;;11.86;98.01;101940.28;5114305;28;20105;-45
2022/07/04 05:16:27;;;;;;;32.42;13.20;;;;;;;11.93;97.67;101933.66;5114513;28;20032;-49
2022/07/04 05:18:52;;;;;;;33.38;14.02;;;;;;;11.98;97.59;101933.06;5115611;28;20051;-46
2022/07/04 05:21:17;;;;;;;28.27;13.05;;;;;;;12.04;97.63;101932.44;5115391;28;20019;-48
2022/07/04 05:23:42;;;;;;;26.63;13.18;;;;;;;12.14;97.06;101937.16;5114626;28;20114;-48
2022/07/04 05:26:08;;;;;;;32.35;13.18;;;;;;;12.22;96.47;101937.47;5115286;28;20023;-45
2022/07/04 05:28:33;;;;;;;31.00;13.40;;;;;;;12.32;96.01;101938.72;5114288;28;20059;-46
2022/07/04 05:30:58;;;;;;;26.75;12.82;;;;;;;12.40;95.60;101932.16;5115190;28;20490;-45
2022/07/04 05:33:23;;;;;;;30.88;12.13;;;;;;;12.49;95.48;101941.97;5115077;28;20389;-45
2022/07/04 05:35:49;;;;;;;25.45;12.30;;;;;;;12.56;95.49;101937.91;5114348;28;20031;-45
2022/07/04 05:38:14;;;;;;;30.17;12.27;;;;;;;12.66;95.32;101945.22;5114808;28;20416;-47
2022/07/04 05:40:39;;;;;;;32.67;12.77;;;;;;;12.74;95.33;101948.09;5114930;28;20588;-48
2022/07/04 05:43:05;;;;;;;24.35;12.25;;;;;;;12.83;95.35;101954.53;5114047;28;20093;-46
2022/07/04 05:45:30;;;;;;;31.50;11.82;;;;;;;12.96;94.61;101955.88;5114708;28;20485;-45
2022/07/04 05:47:55;;;;;;;26.27;11.85;;;;;;;13.05;94.61;101957.88;5114813;28;20035;-48
2022/07/04 05:50:20;;;;;;;35.38;11.85;;;;;;;13.14;94.37;101958.25;5113959;28;20038;-48
2022/07/04 05:52:46;;;;;;;24.75;11.13;;;;;;;13.23;92.96;101955.09;5114831;28;20023;-47
2022/07/04 05:55:11;;;;;;;32.38;11.20;;;;;;;13.34;92.91;101951.19;5114348;28;20068;-49
2022/07/04 05:57:36;;;;;;;32.00;10.88;;;;;;;13.45;92.78;101956.81;5113748;28;20103;-49
2022/07/04 06:00:03;;;;;;;23.65;12.10;;;;;;;13.56;91.15;101964.94;5113956;28;20048;-46
2022/07/04 06:02:29;;;;;;;24.98;10.98;;;;;;;13.66;90.35;101967.03;5114413;28;20175;-47
2022/07/04 06:04:54;;;;;;;20.80;10.85;;;;;;;13.76;90.37;101957.88;5113581;28;20102;-46
2022/07/04 06:07:19;;;;;;;25.83;10.23;;;;;;;13.84;88.84;101965.91;5114138;28;20117;-46
2022/07/04 06:09:45;;;;;;;29.15;11.05;;;;;;;13.93;88.33;101962.72;5114298;28;20027;-49
2022/07/04 06:12:10;;;;;;;25.27;10.57;;;;;;;14.04;88.75;101966.56;5113471;28;20074;-49
2022/07/04 06:14:36;;;;;;;23.23;9.60;;;;;;;14.11;88.17;101967.66;5113908;28;20391;-49
2022/07/04 06:17:01;;;;;;;21.13;9.65;;;;;;;14.19;88.75;101973.97;5114371;28;20039;-48
2022/07/04 06:19:26;;;;;;;22.88;9.60;;;;;;;14.27;87.03;101976.81;5113388;28;20031;-46
2022/07/04 06:21:51;;;;;;;27.65;10.77;;;;;;;14.34;86.51;101968.41;5114333;28;20372;-48
2022/07/04 06:24:17;;;;;;;17.13;10.07;;;;;;;14.40;87.17;101968.59;5114053;28;20494;-47
2022/07/04 06:26:42;;;;;;;23.35;10.38;;;;;;;14.49;86.55;101962.81;5112928;28;20043;-48
2022/07/04 06:29:07;;;;;;;23.17;11.07;;;;;;;14.59;88.79;101964.88;5113836;28;20464;-49
2022/07/04 06:31:33;;;;;;;18.88;10.18;;;;;;;14.65;85.97;101956.41;5113965;28;20028;-48
2022/07/04 06:36:42;;;;;;;20.33;9.63;;;;;;;14.81;84.34;101953.47;5114135;28;20531;-50
2022/07/04 06:39:07;;;;;;;20.60;8.65;;;;;;;14.92;83.08;101960.69;5112874;28;20040;-50
2022/07/04 06:41:32;;;;;;;25.85;9.57;;;;;;;15.10;81.05;101960.34;5113702;28;20478;-49
2022/07/04 06:43:57;;;;;;;20.52;8.98;;;;;;;15.38;80.98;101959.41;5113683;28;20024;-46
2022/07/04 06:46:23;;;;;;;19.02;8.20;;;;;;;15.63;77.35;101960.06;5112911;28;20087;-47
2022/07/04 06:48:48;;;;;;;16.98;7.35;;;;;;;15.71;76.32;101968.06;5113994;28;20039;-48
2022/07/04 06:51:13;;;;;;;20.02;7.22;;;;;;;15.70;75.32;101967.19;5113567;28;20023;-46
2022/07/04 06:53:41;;;;;;;17.40;7.50;;;;;;;15.68;75.39;101966.25;5112711;28;20489;-46
2022/07/04 06:56:06;;;;;;;16.63;7.28;;;;;;;15.74;75.42;101968.16;5113405;28;20475;-49
2022/07/04 06:58:32;;;;;;;21.02;7.95;;;;;;;15.78;74.81;101968.25;5113450;28;20042;-47
2022/07/04 07:00:57;;;;;;;14.57;7.80;;;;;;;15.90;75.14;101966.88;5112640;28;20112;-49
2022/07/04 07:03:22;;;;;;;15.13;7.25;;;;;;;15.95;74.51;101957.47;5113112;28;20023;-47
2022/07/04 07:05:47;;;;;;;16.48;7.32;;;;;;;16.09;74.83;101953.47;5113556;28;20032;-48
2022/07/04 07:08:13;;;;;;;17.73;7.63;;;;;;;16.20;74.45;101948.53;5112563;28;20043;-50
2022/07/04 07:10:38;;;;;;;18.05;6.47;;;;;;;16.27;74.33;101952.16;5113279;28;20012;-49
2022/07/04 07:13:03;;;;;;;15.95;7.25;;;;;;;16.32;73.27;101953.16;5113079;28;20031;-49
2022/07/04 07:15:29;;;;;;;12.30;6.60;;;;;;;16.25;71.95;101957.31;5112543;28;20027;-49
2022/07/04 07:17:54;;;;;;;15.02;6.40;;;;;;;16.20;73.12;101958.06;5113724;28;20108;-47
2022/07/04 07:20:20;;;;;;;15.20;6.47;;;;;;;16.21;73.57;101959.81;5113342;28;20051;-47
2022/07/04 07:22:45;;;;;;;18.92;6.85;;;;;;;16.23;73.54;101955.50;5112380;28;20023;-49
2022/07/04 07:25:10;;;;;;;19.95;7.22;;;;;;;16.32;74.15;101963.56;5113046;28;20023;-46
2022/07/04 07:27:37;;;;;;;18.85;6.72;;;;;;;16.27;72.26;101959.97;5113091;28;20020;-49
2022/07/04 07:30:04;;;;;;;13.35;6.10;;;;;;;16.32;73.65;101960.97;5111960;28;20428;-50
2022/07/04 07:32:29;;;;;;;16.10;6.43;;;;;;;16.45;77.59;101968.19;5112914;28;20524;-49
2022/07/04 07:34:54;;;;;;;12.63;5.57;;;;;;;16.55;73.35;101981.41;5113099;28;20031;-50
2022/07/04 07:37:21;;;;;;;15.70;5.93;;;;;;;16.58;73.45;101969.38;5113758;28;20020;-50
2022/07/04 07:39:47;;;;;;;21.67;5.72;;;;;;;16.69;73.14;101977.41;5117305;28;20099;-50
2022/07/04 07:42:12;;;;;;;15.80;5.07;;;;;;;16.85;72.11;101975.13;5116239;28;20098;-50
2022/07/04 07:44:38;;;;;;;15.77;5.15;;;;;;;17.01;72.54;101966.84;5117373;28;20368;-49
2022/07/04 07:47:03;;;;;;;18.08;5.22;;;;;;;17.13;71.14;101960.13;5117167;28;20393;-49
2022/07/04 07:49:28;;;;;;;15.48;4.75;;;;;;;17.18;72.47;101950.69;5116286;28;20435;-50
2022/07/04 07:51:55;;;;;;;11.57;4.55;;;;;;;17.24;68.56;101959.50;5117056;28;20080;-47
2022/07/04 07:54:21;;;;;;;12.07;3.88;;;;;;;17.24;68.00;101954.28;5116774;28;20360;-48
2022/07/04 07:56:46;;;;;;;12.40;4.53;;;;;;;17.27;68.84;101949.16;5116234;28;20503;-50
2022/07/04 07:59:12;;;;;;;14.77;4.78;;;;;;;17.35;67.90;101951.91;5116807;28;20031;-49
2022/07/04 08:01:37;;;;;;;14.35;4.40;;;;;;;17.51;68.42;101944.38;5116582;28;20048;-50
2022/07/04 08:06:46;;;;;;;11.38;3.65;;;;;;;17.70;66.21;101938.66;5116989;28;20135;-47
2022/07/04 08:09:14;;;;;;;9.27;2.85;;;;;;;17.74;64.87;101940.44;5116590;28;20111;-49
2022/07/04 08:11:39;;;;;;;12.32;3.63;;;;;;;17.83;64.53;101944.94;5115749;28;20429;-47
2022/07/04 08:14:06;;;;;;;14.05;2.88;;;;;;;17.94;66.05;101932.09;5116780;28;20079;-49
2022/07/04 08:16:31;;;;;;;12.00;2.67;;;;;;;18.13;65.23;101940.22;5116629;28;20106;-50
2022/07/04 08:18:57;;;;;;;9.68;2.33;;;;;;;18.30;63.30;101946.59;5115779;28;20098;-50
2022/07/04 08:21:22;;;;;;;8.80;2.50;;;;;;;18.40;61.48;101948.47;5116430;28;20046;-47
2022/07/04 08:23:47;;;;;;;8.98;2.67;;;;;;;18.48;61.48;101950.34;5116497;28;20075;-48
2022/07/04 08:26:12;;;;;;;10.25;2.50;;;;;;;18.50;61.44;101951.22;5115396;28;20024;-47
2022/07/04 08:28:38;;;;;;;12.48;3.10;;;;;;;18.51;61.66;101963.44;5116478;28;20054;-50
2022/07/04 08:31:04;;;;;;;9.75;2.47;;;;;;;18.62;61.60;101960.97;5116153;28;20034;-50
2022/07/04 08:33:29;;;;;;;5.07;2.30;;;;;;;18.65;60.44;101963.63;5115524;28;20103;-50
2022/07/04 08:35:54;;;;;;;17.63;3.10;;;;;;;18.61;58.93;101967.06;5116361;28;20382;-46
2022/07/04 08:38:20;;;;;;;8.95;2.83;;;;;;;18.74;59.78;101963.75;5116077;28;20028;-49
2022/07/04 08:40:47;;;;;;;9.20;2.70;;;;;;;18.81;60.12;101967.31;5115793;28;20028;-49
2022/07/04 08:43:14;;;;;;;16.92;2.95;;;;;;;18.90;61.17;101965.75;5116019;28;20528;-49
2022/07/04 08:45:40;;;;;;;9.27;2.83;;;;;;;19.04;61.60;101967.66;5115328;28;20031;-50
2022/07/04 08:48:07;;;;;;;15.35;3.08;;;;;;;19.25;61.60;101964.44;5115113;28;20378;-49
2022/07/04 08:50:34;;;;;;;9.57;4.03;;;;;;;19.37;60.86;101961.94;5115383;28;20023;-49
2022/07/04 08:53:05;;;;;;;10.40;3.08;;;;;;;19.44;59.06;101954.16;5114914;28;20463;-47
2022/07/04 08:58:31;;;;;;;9.32;3.15;;;;;;;19.75;60.96;101968.41;5116099;28;20068;-49
2022/07/04 09:00:58;;;;;;;22.60;3.40;;;;;;;19.87;59.06;101958.09;5114739;28;20032;-48
2022/07/04 09:03:24;;;;;;;7.13;2.78;;;;;;;19.97;58.25;101971.25;5115397;28;20028;-50
2022/07/04 09:05:50;;;;;;;10.60;3.15;;;;;;;20.04;57.27;101965.22;5115845;28;20111;-50
2022/07/04 09:08:16;;;;;;;17.92;3.53;;;;;;;20.06;57.13;101966.09;5114793;28;20063;-49
2022/07/04 09:10:42;;;;;;;8.55;2.70;;;;;;;20.25;58.56;101969.75;5115678;28;20062;-50
2022/07/04 09:13:09;;;;;;;10.13;2.70;;;;;;;20.42;57.86;101966.38;5115277;28;20111;-50
2022/07/04 09:15:34;;;;;;;10.57;2.92;;;;;;;20.53;56.16;101967.31;5114595;28;20024;-49
2022/07/04 09:18:01;;;;;;;11.45;2.80;;;;;;;20.63;55.77;101969.13;5115210;28;20031;-46
2022/07/04 09:20:29;;;;;;;14.30;3.42;;;;;;;20.69;55.99;101971.75;5115541;28;20034;-49
2022/07/04 09:22:55;;;;;;;8.95;3.30;;;;;;;20.73;56.93;101970.06;5114505;28;20088;-50
2022/07/04 09:25:24;;;;;;;9.95;3.08;;;;;;;20.82;56.04;101970.09;5115197;28;20015;-50
2022/07/04 09:27:55;;;;;;;9.13;2.78;;;;;;;20.85;54.42;101966.63;5114635;28;20015;-50
2022/07/04 09:30:22;;;;;;;11.30;2.90;;;;;;;20.95;55.24;101968.41;5114966;28;20039;-47
2022/07/04 09:32:50;;;;;;;;;;;;;;;21.10;55.05;101972.84;5115456;28;20059;-48
2022/07/04 09:35:21;;;;;;;19.83;3.45;;;;;;;21.09;54.20;101967.63;5114078;28;20279;-49
2022/07/04 09:37:51;;;;;;;11.10;2.85;;;;;;;21.17;53.02;101963.25;5115184;28;20031;-50
2022/07/04 09:43:26;;;;;;;10.85;2.53;;;;;;;21.40;53.27;101970.34;5114412;28;20035;-50
2022/07/04 09:45:56;;;;;;;15.98;3.35;;;;;;;21.36;51.27;101962.44;5114979;28;20024;-49
2022/07/04 09:48:21;;;;;;;9.70;3.00;;;;;;;21.47;51.82;101959.88;5114808;28;20028;-48
2022/07/04 09:50:46;;;;;;;10.88;2.72;;;;;;;21.77;51.34;101955.56;5113854;28;20026;-49
2022/07/04 09:53:12;;;;;;;8.75;2.85;;;;;;;21.90;50.85;101964.31;5114576;28;20027;-49
2022/07/04 09:55:38;;;;;;;11.73;3.30;;;;;;;21.78;50.31;101956.41;5114485;28;20031;-50
2022/07/04 09:58:04;;;;;;;9.37;3.00;;;;;;;21.95;50.90;101959.94;5113898;28;20047;-50
2022/07/04 10:00:36;;;;;;;36.55;3.70;;;;;;;22.18;50.76;101959.91;5114043;28;20050;-49
2022/07/04 10:03:28;;;;;;;13.77;3.13;;;;;;;22.54;50.55;101962.50;5113706;28;20106;-50
2022/07/04 10:06:15;;;;;;;8.32;2.53;;;;;;;22.89;49.76;101958.00;5114507;28;20080;-46
2022/07/04 10:08:42;;;;;;;23.73;3.50;;;;;;;23.17;48.31;101950.91;5114569;28;20054;-50
2022/07/04 10:11:08;;;;;;;8.55;3.00;;;;;;;23.44;47.39;101943.75;5113362;28;20024;-47
2022/07/04 10:13:33;;;;;;;19.55;4.13;;;;;;;23.27;46.93;101957.00;5114464;28;20052;-51
2022/07/04 10:15:59;;;;;;;13.77;3.25;;;;;;;23.31;46.91;101949.06;5114307;28;20034;-51
2022/07/04 10:18:26;;;;;;;24.10;3.53;;;;;;;23.21;48.58;101949.13;5113297;28;20054;-52
2022/07/04 10:20:53;;;;;;;21.80;4.47;;;;;;;23.14;48.50;101948.28;5114484;28;20070;-54
2022/07/04 10:23:19;;;;;;;;;;;;;;;23.53;49.01;101943.66;5114651;28;20293;-52
2022/07/04 10:25:48;;;;;;;11.80;2.90;;;;;;;24.18;45.86;101937.88;5113477;28;20282;-52
2022/07/04 10:28:14;;;;;;;202.15;13.57;;;;;;;24.82;44.77;101938.09;5113887;28;20023;-53
2022/07/04 10:30:41;;;;;;;13.15;3.13;;;;;;;25.79;43.93;101938.47;5113849;28;20032;-54
2022/07/04 10:33:10;;;;;;;27.23;3.63;;;;;;;26.47;41.42;101937.28;5112993;28;20027;-49
2022/07/04 10:35:50;;;;;;;11.50;3.17;;;;;;;26.82;40.70;101933.06;5113841;28;20031;-45
2022/07/04 10:38:21;;;;;;;12.75;3.13;;;;;;;26.92;38.96;101931.06;5113096;28;20030;-48
2022/07/04 10:40:56;;;;;;;12.18;3.00;;;;;;;27.53;38.10;101923.53;5113858;28;20027;-46
2022/07/04 10:43:41;;;;;;;8.60;2.95;;;;;;;27.16;39.65;101927.00;5113575;28;20023;-47
2022/07/04 10:46:15;;;;;;;6.90;2.50;;;;;;;26.26;39.08;101928.84;5113026;28;20034;-45
2022/07/04 10:49:09;;;;;;;7.70;2.72;;;;;;;25.39;40.65;101920.63;5113812;28;20019;-46
2022/07/04 10:51:39;;;;;;;8.85;2.95;;;;;;;25.15;39.77;101918.31;5113525;28;20084;-46
2022/07/04 10:54:10;;;;;;;8.68;2.50;;;;;;;25.71;40.73;101921.88;5112891;28;20019;-45
2022/07/04 10:56:48;;;;;;;10.05;2.85;;;;;;;26.84;39.01;101915.34;5113569;28;20023;-46
2022/07/04 10:59:25;;;;;;;6.63;2.45;;;;;;;26.45;38.55;101915.28;5112433;28;20429;-46
2022/07/04 11:01:51;;;;;;;;;;;;;;;26.67;42.30;101920.97;5113784;28;20398;-48
2022/07/04 11:04:44;;;;;;;10.70;2.70;;;;;;;26.97;38.83;101908.03;5113258;28;20290;-46
2022/07/04 11:07:09;;;;;;;9.05;2.58;;;;;;;26.10;39.50;101919.47;5112668;28;20031;-47
2022/07/04 11:09:35;;;;;;;11.15;2.83;;;;;;;25.48;41.58;101925.75;5113381;28;20088;-45
2022/07/04 11:12:06;;;;;;;10.50;4.40;;;;;;;24.92;46.45;101926.53;5112376;28;20015;-47
2022/07/04 11:14:45;;;;;;;13.13;6.03;;;;;;;24.61;46.89;101926.03;5112253;28;20023;-45
2022/07/04 11:17:35;;;;;;;17.42;6.45;;;;;;;23.86;47.69;101931.16;5113095;28;20371;-46
2022/07/04 11:20:00;;;;;;;13.52;6.30;;;;;;;23.30;50.05;101925.41;5112615;28;20031;-46
2022/07/04 11:22:26;;;;;;;18.38;7.93;;;;;;;23.23;51.20;101921.94;5112287;28;20107;-45
2022/07/04 11:24:52;;;;;;;16.83;7.10;;;;;;;24.08;51.50;101920.41;5113201;28;20031;-46
2022/07/04 11:27:21;;;;;;;15.80;7.50;;;;;;;24.22;48.47;101921.19;5112139;28;20070;-46
2022/07/04 11:29:54;;;;;;;16.98;7.95;;;;;;;24.40;48.93;101912.22;5113317;28;20034;-47